sensor_id;sensor_type;location;lat;lon;timestamp;temperature;humidity
77865;DHT22;67061;48.524;9.040;2023-04-01T00:01:10;7.00;99.90
77865;DHT22;67061;48.524;9.040;2023-04-01T00:03:39;7.00;99.90
77865;DHT22;67061;48.524;9.040;2023-04-01T00:06:06;7.00;99.90
77865;DHT22;67061;48.524;9.040;2023-04-01T00:08:33;7.00;99.90
77865;DHT22;67061;48.524;9.040;2023-04-01T00:11:01;7.00;99.20
77865;DHT22;67061;48.524;9.040;2023-04-01T00:13:28;7.10;99.80
77865;DHT22;67061;48.524;9.040;2023-04-01T00:15:55;7.00;99.20
77865;DHT22;67061;48.524;9.040;2023-04-01T00:18:25;7.10;99.10
77865;DHT22;67061;48.524;9.040;2023-04-01T00:20:52;7.10;99.60
77865;DHT22;67061;48.524;9.040;2023-04-01T00:23:19;7.00;98.90
77865;DHT22;67061;48.524;9.040;2023-04-01T00:25:47;7.10;98.30
77865;DHT22;67061;48.524;9.040;2023-04-01T00:28:17;7.10;98.00
77865;DHT22;67061;48.524;9.040;2023-04-01T00:30:44;7.10;98.70
77865;DHT22;67061;48.524;9.040;2023-04-01T00:33:11;7.10;98.90
77865;DHT22;67061;48.524;9.040;2023-04-01T00:35:38;7.10;98.50
77865;DHT22;67061;48.524;9.040;2023-04-01T00:38:05;7.10;98.60
77865;DHT22;67061;48.524;9.040;2023-04-01T00:40:35;7.20;98.50
77865;DHT22;67061;48.524;9.040;2023-04-01T00:43:03;7.20;97.10
77865;DHT22;67061;48.524;9.040;2023-04-01T00:45:34;7.20;97.10
77865;DHT22;67061;48.524;9.040;2023-04-01T00:48:04;7.20;97.80
77865;DHT22;67061;48.524;9.040;2023-04-01T00:50:33;7.20;97.30
77865;DHT22;67061;48.524;9.040;2023-04-01T00:53:02;7.10;97.40
77865;DHT22;67061;48.524;9.040;2023-04-01T00:55:32;7.00;98.10
77865;DHT22;67061;48.524;9.040;2023-04-01T00:58:02;7.00;98.30
77865;DHT22;67061;48.524;9.040;2023-04-01T01:00:33;7.00;97.90
77865;DHT22;67061;48.524;9.040;2023-04-01T01:03:00;7.00;97.10
77865;DHT22;67061;48.524;9.040;2023-04-01T01:05:37;7.00;97.10
77865;DHT22;67061;48.524;9.040;2023-04-01T01:08:12;7.10;96.80
77865;DHT22;67061;48.524;9.040;2023-04-01T01:10:43;7.10;96.90
77865;DHT22;67061;48.524;9.040;2023-04-01T01:13:17;7.10;96.80
77865;DHT22;67061;48.524;9.040;2023-04-01T01:15:56;7.20;94.80
77865;DHT22;67061;48.524;9.040;2023-04-01T01:18:32;7.20;93.90
77865;DHT22;67061;48.524;9.040;2023-04-01T01:21:29;7.20;95.00
77865;DHT22;67061;48.524;9.040;2023-04-01T01:24:08;7.20;94.00
77865;DHT22;67061;48.524;9.040;2023-04-01T01:26:54;7.20;92.20
77865;DHT22;67061;48.524;9.040;2023-04-01T01:29:43;7.20;92.60
77865;DHT22;67061;48.524;9.040;2023-04-01T01:32:21;7.30;91.80
77865;DHT22;67061;48.524;9.040;2023-04-01T01:34:53;7.20;92.10
77865;DHT22;67061;48.524;9.040;2023-04-01T01:37:25;7.20;92.40
77865;DHT22;67061;48.524;9.040;2023-04-01T01:39:55;7.20;92.80
77865;DHT22;67061;48.524;9.040;2023-04-01T01:42:24;7.20;93.70
77865;DHT22;67061;48.524;9.040;2023-04-01T01:44:54;7.10;94.60
77865;DHT22;67061;48.524;9.040;2023-04-01T01:47:22;7.00;93.90
77865;DHT22;67061;48.524;9.040;2023-04-01T01:49:50;7.20;92.60
77865;DHT22;67061;48.524;9.040;2023-04-01T01:52:17;7.20;92.30
77865;DHT22;67061;48.524;9.040;2023-04-01T01:54:50;7.20;93.10
77865;DHT22;67061;48.524;9.040;2023-04-01T01:57:20;7.20;91.50
77865;DHT22;67061;48.524;9.040;2023-04-01T01:59:48;7.20;91.40
77865;DHT22;67061;48.524;9.040;2023-04-01T02:02:17;7.20;91.10
77865;DHT22;67061;48.524;9.040;2023-04-01T02:04:46;7.20;91.20
77865;DHT22;67061;48.524;9.040;2023-04-01T02:07:17;7.20;91.20
77865;DHT22;67061;48.524;9.040;2023-04-01T02:09:47;7.20;92.00
77865;DHT22;67061;48.524;9.040;2023-04-01T02:12:16;7.20;91.70
77865;DHT22;67061;48.524;9.040;2023-04-01T02:14:47;7.20;92.30
77865;DHT22;67061;48.524;9.040;2023-04-01T02:17:18;7.10;93.00
77865;DHT22;67061;48.524;9.040;2023-04-01T02:19:48;7.10;92.80
77865;DHT22;67061;48.524;9.040;2023-04-01T02:22:20;7.00;93.40
77865;DHT22;67061;48.524;9.040;2023-04-01T02:24:49;7.00;93.70
77865;DHT22;67061;48.524;9.040;2023-04-01T02:27:19;7.00;93.20
77865;DHT22;67061;48.524;9.040;2023-04-01T02:29:46;7.00;92.30
77865;DHT22;67061;48.524;9.040;2023-04-01T02:32:14;7.00;91.50
77865;DHT22;67061;48.524;9.040;2023-04-01T02:34:43;7.00;92.50
77865;DHT22;67061;48.524;9.040;2023-04-01T02:37:11;7.00;93.00
77865;DHT22;67061;48.524;9.040;2023-04-01T02:39:39;7.00;93.20
77865;DHT22;67061;48.524;9.040;2023-04-01T02:42:06;7.00;93.90
77865;DHT22;67061;48.524;9.040;2023-04-01T02:44:34;7.00;93.70
77865;DHT22;67061;48.524;9.040;2023-04-01T02:47:01;7.00;94.10
77865;DHT22;67061;48.524;9.040;2023-04-01T02:49:28;7.00;94.80
77865;DHT22;67061;48.524;9.040;2023-04-01T02:51:55;6.90;95.00
77865;DHT22;67061;48.524;9.040;2023-04-01T02:54:22;6.80;94.00
77865;DHT22;67061;48.524;9.040;2023-04-01T02:56:49;6.80;94.40
77865;DHT22;67061;48.524;9.040;2023-04-01T02:59:16;6.80;93.70
77865;DHT22;67061;48.524;9.040;2023-04-01T03:01:44;6.80;93.80
77865;DHT22;67061;48.524;9.040;2023-04-01T03:04:11;6.70;94.70
77865;DHT22;67061;48.524;9.040;2023-04-01T03:06:38;6.70;94.90
77865;DHT22;67061;48.524;9.040;2023-04-01T03:09:05;6.70;94.20
77865;DHT22;67061;48.524;9.040;2023-04-01T03:11:32;6.60;93.40
77865;DHT22;67061;48.524;9.040;2023-04-01T03:13:59;6.60;93.50
77865;DHT22;67061;48.524;9.040;2023-04-01T03:16:26;6.50;93.10
77865;DHT22;67061;48.524;9.040;2023-04-01T03:18:54;6.50;92.10
77865;DHT22;67061;48.524;9.040;2023-04-01T03:21:25;6.50;92.20
77865;DHT22;67061;48.524;9.040;2023-04-01T03:23:52;6.50;92.30
77865;DHT22;67061;48.524;9.040;2023-04-01T03:26:19;6.50;92.70
77865;DHT22;67061;48.524;9.040;2023-04-01T03:28:47;6.40;93.00
77865;DHT22;67061;48.524;9.040;2023-04-01T03:31:14;6.40;92.70
77865;DHT22;67061;48.524;9.040;2023-04-01T03:33:41;6.40;93.10
77865;DHT22;67061;48.524;9.040;2023-04-01T03:36:10;6.30;93.20
77865;DHT22;67061;48.524;9.040;2023-04-01T03:38:38;6.20;93.50
77865;DHT22;67061;48.524;9.040;2023-04-01T03:41:06;6.20;93.90
77865;DHT22;67061;48.524;9.040;2023-04-01T03:43:33;6.20;93.70
77865;DHT22;67061;48.524;9.040;2023-04-01T03:46:00;6.10;93.40
77865;DHT22;67061;48.524;9.040;2023-04-01T03:48:27;6.10;93.90
77865;DHT22;67061;48.524;9.040;2023-04-01T03:50:54;6.10;94.40
77865;DHT22;67061;48.524;9.040;2023-04-01T03:53:22;6.10;94.50
77865;DHT22;67061;48.524;9.040;2023-04-01T03:55:49;6.10;94.00
77865;DHT22;67061;48.524;9.040;2023-04-01T03:58:17;6.20;93.70
77865;DHT22;67061;48.524;9.040;2023-04-01T04:00:44;6.20;94.10
77865;DHT22;67061;48.524;9.040;2023-04-01T04:03:11;6.20;94.30
77865;DHT22;67061;48.524;9.040;2023-04-01T04:05:46;6.20;94.10
77865;DHT22;67061;48.524;9.040;2023-04-01T04:08:13;6.20;94.60
77865;DHT22;67061;48.524;9.040;2023-04-01T04:10:42;6.20;94.90
77865;DHT22;67061;48.524;9.040;2023-04-01T04:13:09;6.20;95.40
77865;DHT22;67061;48.524;9.040;2023-04-01T04:15:36;6.20;95.70
77865;DHT22;67061;48.524;9.040;2023-04-01T04:18:03;6.10;96.20
77865;DHT22;67061;48.524;9.040;2023-04-01T04:20:30;6.10;96.30
77865;DHT22;67061;48.524;9.040;2023-04-01T04:22:57;6.10;95.50
77865;DHT22;67061;48.524;9.040;2023-04-01T04:25:24;6.10;95.50
77865;DHT22;67061;48.524;9.040;2023-04-01T04:27:52;6.10;95.60
77865;DHT22;67061;48.524;9.040;2023-04-01T04:30:19;6.20;95.10
77865;DHT22;67061;48.524;9.040;2023-04-01T04:32:46;6.20;95.10
77865;DHT22;67061;48.524;9.040;2023-04-01T04:35:13;6.30;94.30
77865;DHT22;67061;48.524;9.040;2023-04-01T04:37:40;6.30;94.60
77865;DHT22;67061;48.524;9.040;2023-04-01T04:40:08;6.40;94.00
77865;DHT22;67061;48.524;9.040;2023-04-01T04:42:35;6.40;93.70
77865;DHT22;67061;48.524;9.040;2023-04-01T04:45:04;6.50;93.70
77865;DHT22;67061;48.524;9.040;2023-04-01T04:47:31;6.50;93.90
77865;DHT22;67061;48.524;9.040;2023-04-01T04:49:58;6.50;94.00
77865;DHT22;67061;48.524;9.040;2023-04-01T04:52:25;6.50;93.90
77865;DHT22;67061;48.524;9.040;2023-04-01T04:54:52;6.50;93.80
77865;DHT22;67061;48.524;9.040;2023-04-01T04:57:19;6.50;93.00
77865;DHT22;67061;48.524;9.040;2023-04-01T04:59:46;6.60;92.90
77865;DHT22;67061;48.524;9.040;2023-04-01T05:02:14;6.60;92.50
77865;DHT22;67061;48.524;9.040;2023-04-01T05:04:41;6.60;92.60
77865;DHT22;67061;48.524;9.040;2023-04-01T05:07:08;6.60;93.00
77865;DHT22;67061;48.524;9.040;2023-04-01T05:09:35;6.60;92.90
77865;DHT22;67061;48.524;9.040;2023-04-01T05:12:02;6.70;92.20
77865;DHT22;67061;48.524;9.040;2023-04-01T05:14:29;6.70;91.70
77865;DHT22;67061;48.524;9.040;2023-04-01T05:16:55;6.70;92.40
77865;DHT22;67061;48.524;9.040;2023-04-01T05:19:24;6.70;91.90
77865;DHT22;67061;48.524;9.040;2023-04-01T05:21:51;6.80;91.30
77865;DHT22;67061;48.524;9.040;2023-04-01T05:24:18;6.80;91.00
77865;DHT22;67061;48.524;9.040;2023-04-01T05:26:45;6.80;91.20
77865;DHT22;67061;48.524;9.040;2023-04-01T05:29:12;6.90;90.90
77865;DHT22;67061;48.524;9.040;2023-04-01T05:31:39;6.90;91.10
77865;DHT22;67061;48.524;9.040;2023-04-01T05:34:06;6.90;91.60
77865;DHT22;67061;48.524;9.040;2023-04-01T05:36:34;6.90;90.80
77865;DHT22;67061;48.524;9.040;2023-04-01T05:39:01;6.90;90.90
77865;DHT22;67061;48.524;9.040;2023-04-01T05:41:28;7.00;90.90
77865;DHT22;67061;48.524;9.040;2023-04-01T05:43:55;7.00;91.50
77865;DHT22;67061;48.524;9.040;2023-04-01T05:46:22;7.00;91.00
77865;DHT22;67061;48.524;9.040;2023-04-01T05:48:49;7.00;90.50
77865;DHT22;67061;48.524;9.040;2023-04-01T05:51:16;7.00;90.60
77865;DHT22;67061;48.524;9.040;2023-04-01T05:53:45;7.00;90.00
77865;DHT22;67061;48.524;9.040;2023-04-01T05:56:12;7.00;90.50
77865;DHT22;67061;48.524;9.040;2023-04-01T05:58:39;7.00;90.00
77865;DHT22;67061;48.524;9.040;2023-04-01T06:01:07;7.10;90.30
77865;DHT22;67061;48.524;9.040;2023-04-01T06:03:35;7.20;91.10
77865;DHT22;67061;48.524;9.040;2023-04-01T06:06:02;7.20;90.30
77865;DHT22;67061;48.524;9.040;2023-04-01T06:08:31;7.30;90.40
77865;DHT22;67061;48.524;9.040;2023-04-01T06:11:06;7.30;89.10
77865;DHT22;67061;48.524;9.040;2023-04-01T06:14:00;7.30;89.10
77865;DHT22;67061;48.524;9.040;2023-04-01T06:16:44;7.40;88.90
77865;DHT22;67061;48.524;9.040;2023-04-01T06:19:24;7.40;88.50
77865;DHT22;67061;48.524;9.040;2023-04-01T06:22:18;7.40;89.00
77865;DHT22;67061;48.524;9.040;2023-04-01T06:25:11;7.40;88.20
77865;DHT22;67061;48.524;9.040;2023-04-01T06:27:54;7.40;88.80
77865;DHT22;67061;48.524;9.040;2023-04-01T06:30:33;7.50;88.60
77865;DHT22;67061;48.524;9.040;2023-04-01T06:36:18;7.50;88.70
77865;DHT22;67061;48.524;9.040;2023-04-01T06:39:00;7.50;89.40
77865;DHT22;67061;48.524;9.040;2023-04-01T06:44:44;7.60;87.60
77865;DHT22;67061;48.524;9.040;2023-04-01T06:47:26;7.70;88.20
77865;DHT22;67061;48.524;9.040;2023-04-01T06:50:01;7.70;87.60
77865;DHT22;67061;48.524;9.040;2023-04-01T06:52:39;7.80;87.80
77865;DHT22;67061;48.524;9.040;2023-04-01T06:55:19;7.80;88.00
77865;DHT22;67061;48.524;9.040;2023-04-01T06:57:49;7.80;87.80
77865;DHT22;67061;48.524;9.040;2023-04-01T07:00:25;8.00;88.30
77865;DHT22;67061;48.524;9.040;2023-04-01T07:02:57;8.00;87.80
77865;DHT22;67061;48.524;9.040;2023-04-01T07:05:30;8.00;86.20
77865;DHT22;67061;48.524;9.040;2023-04-01T07:07:59;8.00;87.20
77865;DHT22;67061;48.524;9.040;2023-04-01T07:10:43;8.00;86.80
77865;DHT22;67061;48.524;9.040;2023-04-01T07:13:17;8.00;86.80
77865;DHT22;67061;48.524;9.040;2023-04-01T07:15:54;8.00;87.50
77865;DHT22;67061;48.524;9.040;2023-04-01T07:18:30;8.00;86.80
77865;DHT22;67061;48.524;9.040;2023-04-01T07:21:01;8.00;86.70
77865;DHT22;67061;48.524;9.040;2023-04-01T07:23:32;8.00;87.20
77865;DHT22;67061;48.524;9.040;2023-04-01T07:26:04;8.00;87.70
77865;DHT22;67061;48.524;9.040;2023-04-01T07:28:33;8.10;88.10
77865;DHT22;67061;48.524;9.040;2023-04-01T07:31:11;8.20;87.40
77865;DHT22;67061;48.524;9.040;2023-04-01T07:33:45;8.20;88.20
77865;DHT22;67061;48.524;9.040;2023-04-01T07:36:19;8.20;87.50
77865;DHT22;67061;48.524;9.040;2023-04-01T07:38:57;8.20;86.40
77865;DHT22;67061;48.524;9.040;2023-04-01T07:41:32;8.20;87.20
77865;DHT22;67061;48.524;9.040;2023-04-01T07:44:11;8.20;86.90
77865;DHT22;67061;48.524;9.040;2023-04-01T07:46:53;8.20;87.00
77865;DHT22;67061;48.524;9.040;2023-04-01T07:49:27;8.30;87.20
77865;DHT22;67061;48.524;9.040;2023-04-01T07:52:00;8.30;86.80
77865;DHT22;67061;48.524;9.040;2023-04-01T07:54:36;8.30;86.90
77865;DHT22;67061;48.524;9.040;2023-04-01T07:57:10;8.30;87.20
77865;DHT22;67061;48.524;9.040;2023-04-01T07:59:45;8.30;87.20
77865;DHT22;67061;48.524;9.040;2023-04-01T08:02:25;8.30;86.20
77865;DHT22;67061;48.524;9.040;2023-04-01T08:05:02;8.30;87.40
77865;DHT22;67061;48.524;9.040;2023-04-01T08:07:39;8.40;88.00
77865;DHT22;67061;48.524;9.040;2023-04-01T08:10:11;8.30;86.60
77865;DHT22;67061;48.524;9.040;2023-04-01T08:12:48;8.30;86.60
77865;DHT22;67061;48.524;9.040;2023-04-01T08:15:21;8.30;87.10
77865;DHT22;67061;48.524;9.040;2023-04-01T08:18:05;8.30;87.50
77865;DHT22;67061;48.524;9.040;2023-04-01T08:20:37;8.30;88.00
77865;DHT22;67061;48.524;9.040;2023-04-01T08:23:12;8.30;88.10
77865;DHT22;67061;48.524;9.040;2023-04-01T08:25:44;8.30;89.40
77865;DHT22;67061;48.524;9.040;2023-04-01T08:28:17;8.30;89.40
77865;DHT22;67061;48.524;9.040;2023-04-01T08:30:50;8.30;89.80
77865;DHT22;67061;48.524;9.040;2023-04-01T08:33:24;8.30;90.90
77865;DHT22;67061;48.524;9.040;2023-04-01T08:35:56;8.20;90.00
77865;DHT22;67061;48.524;9.040;2023-04-01T08:38:30;8.30;89.90
77865;DHT22;67061;48.524;9.040;2023-04-01T08:41:01;8.20;89.90
77865;DHT22;67061;48.524;9.040;2023-04-01T08:46:55;8.20;89.60
77865;DHT22;67061;48.524;9.040;2023-04-01T08:49:50;8.30;89.10
77865;DHT22;67061;48.524;9.040;2023-04-01T08:52:33;8.30;89.40
77865;DHT22;67061;48.524;9.040;2023-04-01T08:55:15;8.30;89.40
77865;DHT22;67061;48.524;9.040;2023-04-01T08:57:51;8.40;91.00
77865;DHT22;67061;48.524;9.040;2023-04-01T09:00:27;8.40;89.80
77865;DHT22;67061;48.524;9.040;2023-04-01T09:06:12;8.40;91.20
77865;DHT22;67061;48.524;9.040;2023-04-01T09:08:59;8.40;91.80
77865;DHT22;67061;48.524;9.040;2023-04-01T09:11:32;8.40;92.80
77865;DHT22;67061;48.524;9.040;2023-04-01T09:14:25;8.40;92.60
77865;DHT22;67061;48.524;9.040;2023-04-01T09:20:15;8.60;93.00
77865;DHT22;67061;48.524;9.040;2023-04-01T09:23:10;8.60;92.40
77865;DHT22;67061;48.524;9.040;2023-04-01T09:26:03;8.60;91.40
77865;DHT22;67061;48.524;9.040;2023-04-01T09:28:42;8.80;91.80
77865;DHT22;67061;48.524;9.040;2023-04-01T09:31:25;8.80;92.40
77865;DHT22;67061;48.524;9.040;2023-04-01T09:34:30;8.80;90.60
77865;DHT22;67061;48.524;9.040;2023-04-01T09:37:17;8.70;91.20
77865;DHT22;67061;48.524;9.040;2023-04-01T09:40:08;8.60;92.00
77865;DHT22;67061;48.524;9.040;2023-04-01T09:42:45;8.60;93.00
77865;DHT22;67061;48.524;9.040;2023-04-01T09:45:36;8.60;94.00
77865;DHT22;67061;48.524;9.040;2023-04-01T09:48:19;8.60;94.90
77865;DHT22;67061;48.524;9.040;2023-04-01T09:50:52;8.60;92.50
77865;DHT22;67061;48.524;9.040;2023-04-01T09:53:36;8.70;94.10
77865;DHT22;67061;48.524;9.040;2023-04-01T10:05:57;8.80;93.50
77865;DHT22;67061;48.524;9.040;2023-04-01T10:12:17;8.60;93.40
77865;DHT22;67061;48.524;9.040;2023-04-01T10:15:24;8.60;94.00
77865;DHT22;67061;48.524;9.040;2023-04-01T10:18:23;8.50;92.60
77865;DHT22;67061;48.524;9.040;2023-04-01T10:21:11;8.50;93.90
77865;DHT22;67061;48.524;9.040;2023-04-01T10:23:55;8.50;93.60
77865;DHT22;67061;48.524;9.040;2023-04-01T10:30:05;8.50;92.70
77865;DHT22;67061;48.524;9.040;2023-04-01T10:36:06;8.50;91.00
77865;DHT22;67061;48.524;9.040;2023-04-01T10:38:56;8.50;92.20
77865;DHT22;67061;48.524;9.040;2023-04-01T10:42:01;8.50;91.30
77865;DHT22;67061;48.524;9.040;2023-04-01T10:53:37;8.80;92.30
77865;DHT22;67061;48.524;9.040;2023-04-01T10:56:42;9.00;92.40
77865;DHT22;67061;48.524;9.040;2023-04-01T11:03:07;9.00;90.60
77865;DHT22;67061;48.524;9.040;2023-04-01T11:06:05;9.00;90.30
77865;DHT22;67061;48.524;9.040;2023-04-01T11:15:15;9.30;89.70
77865;DHT22;67061;48.524;9.040;2023-04-01T11:18:09;9.30;87.60
77865;DHT22;67061;48.524;9.040;2023-04-01T11:23:47;9.20;88.10
77865;DHT22;67061;48.524;9.040;2023-04-01T11:26:27;9.20;88.30
77865;DHT22;67061;48.524;9.040;2023-04-01T11:29:22;9.20;88.10
77865;DHT22;67061;48.524;9.040;2023-04-01T11:31:58;9.10;87.90
77865;DHT22;67061;48.524;9.040;2023-04-01T11:34:50;9.10;88.40
77865;DHT22;67061;48.524;9.040;2023-04-01T11:37:37;9.20;88.60
77865;DHT22;67061;48.524;9.040;2023-04-01T11:40:14;9.30;87.20
77865;DHT22;67061;48.524;9.040;2023-04-01T11:42:49;9.20;85.30
77865;DHT22;67061;48.524;9.040;2023-04-01T11:45:28;9.20;85.50
77865;DHT22;67061;48.524;9.040;2023-04-01T11:53:57;9.20;86.50
77865;DHT22;67061;48.524;9.040;2023-04-01T11:56:49;9.20;86.80
77865;DHT22;67061;48.524;9.040;2023-04-01T11:59:52;9.20;86.70
77865;DHT22;67061;48.524;9.040;2023-04-01T12:02:29;9.20;88.60
77865;DHT22;67061;48.524;9.040;2023-04-01T12:05:23;9.20;87.20
77865;DHT22;67061;48.524;9.040;2023-04-01T12:08:01;9.20;88.00
77865;DHT22;67061;48.524;9.040;2023-04-01T12:10:37;9.10;88.50
77865;DHT22;67061;48.524;9.040;2023-04-01T12:13:14;9.10;88.30
77865;DHT22;67061;48.524;9.040;2023-04-01T12:15:58;9.10;87.80
77865;DHT22;67061;48.524;9.040;2023-04-01T12:18:36;9.20;88.50
77865;DHT22;67061;48.524;9.040;2023-04-01T12:21:14;9.20;87.00
77865;DHT22;67061;48.524;9.040;2023-04-01T12:27:06;9.30;88.00
77865;DHT22;67061;48.524;9.040;2023-04-01T12:29:51;9.30;86.80
77865;DHT22;67061;48.524;9.040;2023-04-01T12:32:28;9.30;85.70
77865;DHT22;67061;48.524;9.040;2023-04-01T12:35:18;9.20;86.70
77865;DHT22;67061;48.524;9.040;2023-04-01T12:37:54;9.20;86.40
77865;DHT22;67061;48.524;9.040;2023-04-01T12:40:44;9.20;85.90
77865;DHT22;67061;48.524;9.040;2023-04-01T12:46:14;9.50;83.70
77865;DHT22;67061;48.524;9.040;2023-04-01T12:48:56;9.60;83.60
77865;DHT22;67061;48.524;9.040;2023-04-01T12:51:50;9.70;84.50
77865;DHT22;67061;48.524;9.040;2023-04-01T12:54:59;9.60;83.30
77865;DHT22;67061;48.524;9.040;2023-04-01T12:57:56;9.60;85.10
77865;DHT22;67061;48.524;9.040;2023-04-01T13:00:31;9.70;84.30
77865;DHT22;67061;48.524;9.040;2023-04-01T13:03:16;9.70;83.00
77865;DHT22;67061;48.524;9.040;2023-04-01T13:05:49;9.80;83.80
77865;DHT22;67061;48.524;9.040;2023-04-01T13:08:29;9.80;82.80
77865;DHT22;67061;48.524;9.040;2023-04-01T13:11:09;9.90;82.70
77865;DHT22;67061;48.524;9.040;2023-04-01T13:14:04;9.90;83.80
77865;DHT22;67061;48.524;9.040;2023-04-01T13:16:36;10.30;84.30
77865;DHT22;67061;48.524;9.040;2023-04-01T13:19:08;10.60;80.00
77865;DHT22;67061;48.524;9.040;2023-04-01T13:21:43;10.50;79.70
77865;DHT22;67061;48.524;9.040;2023-04-01T13:24:31;10.50;78.30
77865;DHT22;67061;48.524;9.040;2023-04-01T13:27:09;10.60;79.00
77865;DHT22;67061;48.524;9.040;2023-04-01T13:29:39;10.70;77.80
77865;DHT22;67061;48.524;9.040;2023-04-01T13:32:19;10.50;78.10
77865;DHT22;67061;48.524;9.040;2023-04-01T13:35:03;10.40;78.70
77865;DHT22;67061;48.524;9.040;2023-04-01T13:37:42;10.20;79.20
77865;DHT22;67061;48.524;9.040;2023-04-01T13:40:28;10.20;79.40
77865;DHT22;67061;48.524;9.040;2023-04-01T13:43:02;10.20;78.70
77865;DHT22;67061;48.524;9.040;2023-04-01T13:45:35;10.20;79.20
77865;DHT22;67061;48.524;9.040;2023-04-01T13:48:29;10.20;79.60
77865;DHT22;67061;48.524;9.040;2023-04-01T13:51:20;10.20;78.90
77865;DHT22;67061;48.524;9.040;2023-04-01T13:56:57;10.10;79.30
77865;DHT22;67061;48.524;9.040;2023-04-01T13:59:58;10.10;80.60
77865;DHT22;67061;48.524;9.040;2023-04-01T14:02:41;10.20;80.40
77865;DHT22;67061;48.524;9.040;2023-04-01T14:05:35;10.20;80.20
77865;DHT22;67061;48.524;9.040;2023-04-01T14:08:14;10.30;79.30
77865;DHT22;67061;48.524;9.040;2023-04-01T14:10:50;10.30;78.40
77865;DHT22;67061;48.524;9.040;2023-04-01T14:13:30;10.30;80.00
77865;DHT22;67061;48.524;9.040;2023-04-01T14:16:14;10.20;77.70
77865;DHT22;67061;48.524;9.040;2023-04-01T14:18:57;10.10;77.70
77865;DHT22;67061;48.524;9.040;2023-04-01T14:21:35;10.00;78.20
77865;DHT22;67061;48.524;9.040;2023-04-01T14:24:32;10.00;79.30
77865;DHT22;67061;48.524;9.040;2023-04-01T14:27:19;10.00;78.90
77865;DHT22;67061;48.524;9.040;2023-04-01T14:30:00;9.80;79.60
77865;DHT22;67061;48.524;9.040;2023-04-01T14:32:39;10.00;80.10
77865;DHT22;67061;48.524;9.040;2023-04-01T14:35:32;10.00;79.20
77865;DHT22;67061;48.524;9.040;2023-04-01T14:38:25;10.00;79.90
77865;DHT22;67061;48.524;9.040;2023-04-01T14:40:56;10.00;80.10
77865;DHT22;67061;48.524;9.040;2023-04-01T14:43:49;10.00;80.40
77865;DHT22;67061;48.524;9.040;2023-04-01T14:46:48;10.20;81.50
77865;DHT22;67061;48.524;9.040;2023-04-01T14:49:21;10.10;79.80
77865;DHT22;67061;48.524;9.040;2023-04-01T14:51:49;10.10;80.60
77865;DHT22;67061;48.524;9.040;2023-04-01T14:54:21;10.00;80.40
77865;DHT22;67061;48.524;9.040;2023-04-01T14:57:04;10.10;81.50
77865;DHT22;67061;48.524;9.040;2023-04-01T14:59:32;10.10;80.20
77865;DHT22;67061;48.524;9.040;2023-04-01T15:02:09;10.00;80.70
77865;DHT22;67061;48.524;9.040;2023-04-01T15:04:52;10.10;81.40
77865;DHT22;67061;48.524;9.040;2023-04-01T15:07:42;10.10;81.30
77865;DHT22;67061;48.524;9.040;2023-04-01T15:10:24;10.10;81.10
77865;DHT22;67061;48.524;9.040;2023-04-01T15:13:03;10.00;80.70
77865;DHT22;67061;48.524;9.040;2023-04-01T15:15:43;10.00;81.00
77865;DHT22;67061;48.524;9.040;2023-04-01T15:18:18;10.00;81.50
77865;DHT22;67061;48.524;9.040;2023-04-01T15:21:09;10.00;81.20
77865;DHT22;67061;48.524;9.040;2023-04-01T15:23:49;9.90;81.20
77865;DHT22;67061;48.524;9.040;2023-04-01T15:26:31;9.80;82.40
77865;DHT22;67061;48.524;9.040;2023-04-01T15:29:18;9.80;83.30
77865;DHT22;67061;48.524;9.040;2023-04-01T15:31:51;9.80;83.70
77865;DHT22;67061;48.524;9.040;2023-04-01T15:34:33;9.80;82.70
77865;DHT22;67061;48.524;9.040;2023-04-01T15:37:08;9.80;82.60
77865;DHT22;67061;48.524;9.040;2023-04-01T15:39:49;9.80;81.60
77865;DHT22;67061;48.524;9.040;2023-04-01T15:42:31;9.70;82.30
77865;DHT22;67061;48.524;9.040;2023-04-01T15:45:11;9.70;82.00
77865;DHT22;67061;48.524;9.040;2023-04-01T15:47:42;9.70;82.10
77865;DHT22;67061;48.524;9.040;2023-04-01T15:50:34;9.70;81.30
77865;DHT22;67061;48.524;9.040;2023-04-01T15:53:18;9.70;81.80
77865;DHT22;67061;48.524;9.040;2023-04-01T15:55:51;9.70;81.30
77865;DHT22;67061;48.524;9.040;2023-04-01T15:58:36;9.70;82.00
77865;DHT22;67061;48.524;9.040;2023-04-01T16:01:15;9.70;81.20
77865;DHT22;67061;48.524;9.040;2023-04-01T16:03:51;9.70;79.70
77865;DHT22;67061;48.524;9.040;2023-04-01T16:06:38;9.70;79.20
77865;DHT22;67061;48.524;9.040;2023-04-01T16:09:30;9.70;79.10
77865;DHT22;67061;48.524;9.040;2023-04-01T16:12:04;9.70;78.90
77865;DHT22;67061;48.524;9.040;2023-04-01T16:14:39;9.70;79.20
77865;DHT22;67061;48.524;9.040;2023-04-01T16:17:25;9.70;78.30
77865;DHT22;67061;48.524;9.040;2023-04-01T16:19:58;9.70;78.90
77865;DHT22;67061;48.524;9.040;2023-04-01T16:22:31;9.70;79.10
77865;DHT22;67061;48.524;9.040;2023-04-01T16:25:17;9.80;79.20
77865;DHT22;67061;48.524;9.040;2023-04-01T16:27:51;9.80;78.10
77865;DHT22;67061;48.524;9.040;2023-04-01T16:30:26;9.80;78.90
77865;DHT22;67061;48.524;9.040;2023-04-01T16:33:02;9.80;78.10
77865;DHT22;67061;48.524;9.040;2023-04-01T16:35:37;9.70;78.20
77865;DHT22;67061;48.524;9.040;2023-04-01T16:38:13;9.70;77.90
77865;DHT22;67061;48.524;9.040;2023-04-01T16:40:46;9.70;78.70
77865;DHT22;67061;48.524;9.040;2023-04-01T16:43:19;9.70;78.40
77865;DHT22;67061;48.524;9.040;2023-04-01T16:45:57;9.70;79.00
77865;DHT22;67061;48.524;9.040;2023-04-01T16:48:44;9.80;78.80
77865;DHT22;67061;48.524;9.040;2023-04-01T16:51:15;9.80;78.50
77865;DHT22;67061;48.524;9.040;2023-04-01T16:53:47;9.80;78.40
77865;DHT22;67061;48.524;9.040;2023-04-01T16:56:20;9.70;78.10
77865;DHT22;67061;48.524;9.040;2023-04-01T16:58:57;9.70;78.70
77865;DHT22;67061;48.524;9.040;2023-04-01T17:01:29;9.60;78.90
77865;DHT22;67061;48.524;9.040;2023-04-01T17:04:04;9.60;79.50
77865;DHT22;67061;48.524;9.040;2023-04-01T17:06:38;9.60;79.50
77865;DHT22;67061;48.524;9.040;2023-04-01T17:09:30;9.60;79.50
77865;DHT22;67061;48.524;9.040;2023-04-01T17:12:04;9.50;79.80
77865;DHT22;67061;48.524;9.040;2023-04-01T17:14:42;9.50;80.50
77865;DHT22;67061;48.524;9.040;2023-04-01T17:17:22;9.50;81.20
77865;DHT22;67061;48.524;9.040;2023-04-01T17:20:11;9.50;80.70
77865;DHT22;67061;48.524;9.040;2023-04-01T17:22:46;9.40;81.10
77865;DHT22;67061;48.524;9.040;2023-04-01T17:25:35;9.40;81.50
77865;DHT22;67061;48.524;9.040;2023-04-01T17:28:12;9.40;81.80
77865;DHT22;67061;48.524;9.040;2023-04-01T17:30:45;9.40;81.70
77865;DHT22;67061;48.524;9.040;2023-04-01T17:33:49;9.40;81.10
77865;DHT22;67061;48.524;9.040;2023-04-01T17:36:34;9.40;81.00
77865;DHT22;67061;48.524;9.040;2023-04-01T17:39:26;9.30;80.70
77865;DHT22;67061;48.524;9.040;2023-04-01T17:42:05;9.40;79.80
77865;DHT22;67061;48.524;9.040;2023-04-01T17:44:39;9.40;80.00
77865;DHT22;67061;48.524;9.040;2023-04-01T17:47:21;9.40;79.60
77865;DHT22;67061;48.524;9.040;2023-04-01T17:49:56;9.40;79.00
77865;DHT22;67061;48.524;9.040;2023-04-01T17:52:32;9.40;78.40
77865;DHT22;67061;48.524;9.040;2023-04-01T17:55:45;9.40;78.40